Time;durP1;ratioP1;P1;durP2;ratioP2;P2;SDS_P1;SDS_P2;PMS_P1;PMS_P2;Temp;Humidity;BMP_temperature;BMP_pressure;BME280_temperature;BME280_humidity;BME280_pressure;Samples;Min_cycle;Max_cycle;Signal;HPM_P1;HPM_P2
2021/01/24 00:02:30;;;;;;;;;;;;;;;5.98;72.69;98832.72;4956139;29;19924;-87
2021/01/24 00:05:14;;;;;;;;;;;;;;;5.90;73.66;98820.06;4957757;29;20385;-87
2021/01/24 00:08:00;;;;;;;;;;;;;;;6.19;73.29;98813.00;4953262;29;19915;-87
2021/01/24 00:10:46;;;;;;;;;;;;;;;6.40;71.63;98816.41;4942773;29;19915;-87
2021/01/24 00:13:30;;;;;;;;;;;;;;;6.44;70.58;98818.13;4960113;28;19914;-86
2021/01/24 00:16:15;;;;;;;;;;;;;;;6.10;72.44;98817.66;4953388;29;19914;-85
2021/01/24 00:18:59;;;;;;;;;;;;;;;5.86;74.17;98824.53;4941419;29;19915;-85
2021/01/24 00:21:43;;;;;;;;;;;;;;;5.65;75.17;98828.34;4938775;29;20301;-86
2021/01/24 00:24:28;;;;;;;;;;;;;;;6.32;71.38;98818.09;4952381;29;19914;-86
2021/01/24 00:27:13;;;;;;;;;;;;;;;6.32;72.17;98817.31;4949289;29;19914;-85
2021/01/24 00:29:58;;;;;;;;;;;;;;;6.42;71.87;98820.38;4942752;29;19919;-87
2021/01/24 00:32:42;;;;;;;;;;;;;;;6.23;70.58;98812.00;4942473;29;19914;-86
2021/01/24 00:35:27;;;;;;;;;;;;;;;6.27;71.36;98812.13;4946041;29;19915;-86
2021/01/24 00:38:11;;;;;;;;;;;;;;;5.76;72.40;98811.44;4944130;29;20313;-84
2021/01/24 00:40:56;;;;;;;;;;;;;;;5.43;74.01;98813.28;4945534;29;19915;-86
2021/01/24 00:43:41;;;;;;;;;;;;;;;5.85;72.34;98806.75;4950590;28;19914;-86
2021/01/24 00:46:26;;;;;;;;;;;;;;;5.73;70.96;98819.41;4947247;29;19914;-88
2021/01/24 00:49:10;;;;;;;;;;;;;;;5.62;72.31;98829.81;4963314;28;19918;-87
2021/01/24 00:51:55;;;;;;;;;;;;;;;5.88;71.39;98835.81;4964099;28;19919;-87
2021/01/24 00:54:40;;;;;;;;;;;;;;;5.34;73.39;98824.09;4961938;28;19914;-87
2021/01/24 00:57:24;;;;;;;;;;;;;;;5.18;73.41;98830.41;4965411;28;19914;-86
2021/01/24 01:00:09;;;;;;;;;;;;;;;4.80;73.87;98830.41;4955890;28;19918;-85
2021/01/24 01:02:54;;;;;;;;;;;;;;;5.06;73.17;98833.78;4961386;28;19918;-85
2021/01/24 01:05:39;;;;;;;;;;;;;;;5.28;72.58;98841.59;4949590;28;20392;-87
2021/01/24 01:08:24;;;;;;;;;;;;;;;5.02;73.84;98843.63;4944856;29;20376;-87
2021/01/24 01:11:09;;;;;;;;;;;;;;;5.53;72.09;98843.34;4942099;29;19914;-86
2021/01/24 01:13:53;;;;;;;;;;;;;;;5.51;73.02;98845.56;4946448;29;19915;-87
2021/01/24 01:16:38;;;;;;;;;;;;;;;5.33;74.19;98844.13;4945036;29;19915;-87
2021/01/24 01:19:22;;;;;;;;;;;;;;;5.10;73.07;98843.59;4954262;28;19918;-86
2021/01/24 01:22:06;;;;;;;;;;;;;;;5.08;74.86;98832.34;4945842;28;20425;-86
2021/01/24 01:24:52;;;;;;;;;;;;;;;5.03;73.98;98835.22;4958003;28;19914;-87
2021/01/24 01:27:36;;;;;;;;;;;;;;;5.19;71.45;98830.06;4957613;28;19914;-87
2021/01/24 01:30:21;;;;;;;;;;;;;;;5.13;71.65;98832.16;4957487;29;19922;-86
2021/01/24 01:33:06;;;;;;;;;;;;;;;5.12;71.30;98829.81;4963255;28;19914;-88
2021/01/24 01:35:50;;;;;;;;;;;;;;;4.89;71.87;98829.25;4950604;28;19919;-87
2021/01/24 01:38:35;;;;;;;;;;;;;;;5.08;72.18;98840.41;4951304;29;19915;-88
2021/01/24 01:41:20;;;;;;;;;;;;;;;5.05;71.89;98830.31;4947741;29;19914;-89
2021/01/24 01:44:05;;;;;;;;;;;;;;;5.36;71.52;98837.25;4950284;29;19922;-87
2021/01/24 01:46:52;;;;;;;;;;;;;;;5.11;71.64;98829.00;4947927;29;19914;-88
2021/01/24 01:49:37;;;;;;;;;;;;;;;5.09;71.00;98833.91;4949121;29;19919;-88
2021/01/24 01:52:25;;;;;;;;;;;;;;;4.93;72.43;98827.50;4948040;29;19929;-87
2021/01/24 01:55:09;;;;;;;;;;;;;;;4.40;73.60;98825.34;4946123;29;19914;-85
2021/01/24 01:57:55;;;;;;;;;;;;;;;4.54;72.83;98823.22;4948781;29;19914;-87
2021/01/24 02:00:40;;;;;;;;;;;;;;;4.58;72.50;98826.06;4955426;28;20300;-87
2021/01/24 02:03:43;;;;;;;;;;;;;;;4.54;73.19;98834.00;4952899;29;19914;-88
2021/01/24 02:06:32;;;;;;;;;;;;;;;4.74;71.04;98835.19;4958825;29;20376;-87
2021/01/24 02:09:21;;;;;;;;;;;;;;;4.85;71.23;98844.50;4956578;28;19927;-87
2021/01/24 02:12:08;;;;;;;;;;;;;;;5.33;70.04;98846.00;4961932;28;19915;-86
2021/01/24 02:14:53;;;;;;;;;;;;;;;4.63;69.98;98847.41;4946097;28;19918;-87
2021/01/24 02:17:42;;;;;;;;;;;;;;;3.00;76.90;98843.59;4956529;28;19914;-88
2021/01/24 02:20:39;;;;;;;;;;;;;;;3.16;76.41;98835.13;4960649;28;20324;-86
2021/01/24 02:23:25;;;;;;;;;;;;;;;4.51;72.65;98839.25;4961423;28;20304;-86
2021/01/24 02:26:09;;;;;;;;;;;;;;;4.91;70.61;98837.81;4944923;29;19922;-86
2021/01/24 02:28:57;;;;;;;;;;;;;;;5.12;69.55;98833.28;4941730;29;19918;-85
2021/01/24 02:31:43;;;;;;;;;;;;;;;5.11;70.58;98842.47;4962997;28;20365;-84
2021/01/24 02:34:33;;;;;;;;;;;;;;;5.18;70.41;98825.03;4947292;29;20529;-86
2021/01/24 02:37:18;;;;;;;;;;;;;;;5.25;69.02;98825.28;4957445;28;19922;-86
2021/01/24 02:40:03;;;;;;;;;;;;;;;4.77;70.18;98818.41;4964443;28;19915;-86
2021/01/24 02:42:49;;;;;;;;;;;;;;;4.77;70.42;98826.47;4949613;28;19914;-87
2021/01/24 02:45:34;;;;;;;;;;;;;;;4.47;71.79;98832.91;4949027;29;19914;-86
2021/01/24 02:48:19;;;;;;;;;;;;;;;4.67;70.23;98830.28;4953550;28;19922;-85
2021/01/24 02:51:05;;;;;;;;;;;;;;;4.36;71.93;98829.78;4955374;28;19918;-87
2021/01/24 02:53:52;;;;;;;;;;;;;;;4.50;72.33;98822.28;4958632;28;19915;-87
2021/01/24 02:56:37;;;;;;;;;;;;;;;4.42;72.58;98820.41;4944381;29;19915;-87
2021/01/24 02:59:22;;;;;;;;;;;;;;;4.81;70.52;98821.25;4962484;28;19914;-86
2021/01/24 03:02:07;;;;;;;;;;;;;;;4.87;70.70;98815.34;4944214;29;19914;-85
2021/01/24 03:04:51;;;;;;;;;;;;;;;4.96;69.63;98809.91;4956407;28;19914;-85
2021/01/24 03:07:36;;;;;;;;;;;;;;;5.13;69.21;98809.81;4952436;28;19915;-86
2021/01/24 03:13:50;;;;;;;;;;;;;;;4.28;70.46;98790.22;5011277;28;19921;-85
2021/01/24 03:16:35;;;;;;;;;;;;;;;4.39;70.43;98796.03;5000463;28;19913;-85
2021/01/24 03:19:21;;;;;;;;;;;;;;;4.17;71.95;98797.03;5018358;28;19913;-85
2021/01/24 03:22:05;;;;;;;;;;;;;;;3.70;73.50;98796.16;5018368;28;19916;-86
2021/01/24 03:25:04;;;;;;;;;;;;;;;4.09;73.06;98801.34;5024509;28;19913;-85
2021/01/24 03:27:48;;;;;;;;;;;;;;;4.11;73.17;98806.41;5000169;28;19913;-86
2021/01/24 03:30:33;;;;;;;;;;;;;;;4.16;72.74;98807.03;5018991;28;19913;-85
2021/01/24 03:33:17;;;;;;;;;;;;;;;4.23;72.70;98815.38;5004593;28;19917;-85
2021/01/24 03:36:02;;;;;;;;;;;;;;;4.72;70.76;98818.59;5017905;28;19939;-84
2021/01/24 03:38:47;;;;;;;;;;;;;;;4.67;70.77;98822.22;5024585;28;19913;-85
2021/01/24 03:41:31;;;;;;;;;;;;;;;4.42;69.64;98808.88;5022311;28;19913;-85
2021/01/24 03:44:16;;;;;;;;;;;;;;;4.05;70.19;98811.16;5026711;28;19913;-84
2021/01/24 03:47:00;;;;;;;;;;;;;;;3.22;71.57;98805.13;4993381;28;19913;-85
2021/01/24 03:49:45;;;;;;;;;;;;;;;3.85;70.49;98801.84;5010691;28;19913;-85
2021/01/24 03:52:29;;;;;;;;;;;;;;;3.97;70.37;98795.03;4993885;28;19925;-85
2021/01/24 03:55:14;;;;;;;;;;;;;;;3.73;71.73;98788.25;5001458;28;19917;-85
2021/01/24 03:57:58;;;;;;;;;;;;;;;3.88;71.58;98793.16;5010690;28;19913;-85
2021/01/24 04:00:42;;;;;;;;;;;;;;;4.02;71.79;98797.53;4999227;28;20291;-85
2021/01/24 04:03:27;;;;;;;;;;;;;;;4.06;69.56;98793.94;5017480;28;19914;-85
2021/01/24 04:06:11;;;;;;;;;;;;;;;3.90;70.10;98786.66;5023057;28;19913;-85
2021/01/24 04:08:56;;;;;;;;;;;;;;;3.50;71.44;98789.53;5017467;28;19912;-85
2021/01/24 04:11:40;;;;;;;;;;;;;;;3.64;72.62;98792.06;5006477;28;19917;-87
2021/01/24 04:14:25;;;;;;;;;;;;;;;3.68;71.53;98784.94;5014973;28;20394;-85
2021/01/24 04:17:09;;;;;;;;;;;;;;;3.78;72.55;98779.25;5028867;28;20318;-85
2021/01/24 04:19:53;;;;;;;;;;;;;;;4.16;70.68;98764.00;5027868;28;19916;-85
2021/01/24 04:22:38;;;;;;;;;;;;;;;4.40;68.71;98773.41;5013203;28;19912;-84
2021/01/24 04:25:24;;;;;;;;;;;;;;;3.76;71.19;98770.69;4994917;28;20376;-85
2021/01/24 04:28:08;;;;;;;;;;;;;;;3.97;69.20;98776.19;5022319;28;19913;-84
2021/01/24 04:30:53;;;;;;;;;;;;;;;3.89;69.91;98775.13;5036543;28;19913;-84
2021/01/24 04:33:37;;;;;;;;;;;;;;;3.86;70.26;98776.53;5035594;28;20395;-85
2021/01/24 04:36:21;;;;;;;;;;;;;;;3.66;70.84;98779.88;5008337;28;19913;-84
2021/01/24 04:39:06;;;;;;;;;;;;;;;3.56;71.71;98769.44;5007206;28;20371;-84
2021/01/24 04:41:50;;;;;;;;;;;;;;;3.55;71.92;98770.56;5001929;28;19913;-85
2021/01/24 04:44:35;;;;;;;;;;;;;;;3.77;72.36;98772.28;5026580;28;19912;-84
2021/01/24 04:47:20;;;;;;;;;;;;;;;4.17;71.52;98773.63;5013825;28;20363;-84
2021/01/24 04:50:05;;;;;;;;;;;;;;;4.34;70.41;98780.88;5007261;28;19913;-83
2021/01/24 04:52:50;;;;;;;;;;;;;;;4.52;69.71;98785.06;5024471;28;19921;-83
2021/01/24 04:55:35;;;;;;;;;;;;;;;4.57;68.88;98792.97;5027433;28;19912;-83
2021/01/24 04:58:20;;;;;;;;;;;;;;;4.64;68.74;98792.47;5013546;28;19913;-84
2021/01/24 05:01:06;;;;;;;;;;;;;;;4.45;69.19;98798.25;5022426;28;20302;-84
2021/01/24 05:03:50;;;;;;;;;;;;;;;4.49;69.42;98798.38;5027117;28;19913;-84
2021/01/24 05:06:35;;;;;;;;;;;;;;;4.52;68.98;98803.91;5027155;28;19912;-85
2021/01/24 05:09:22;;;;;;;;;;;;;;;4.12;70.14;98806.06;5013625;28;19913;-85
2021/01/24 05:12:08;;;;;;;;;;;;;;;4.10;70.81;98813.69;5022071;28;19916;-84
2021/01/24 05:14:52;;;;;;;;;;;;;;;4.35;68.89;98820.13;5027483;28;19912;-84
2021/01/24 05:17:55;;;;;;;;;;;;;;;4.24;67.93;98827.75;5027778;28;19912;-85
2021/01/24 05:20:42;;;;;;;;;;;;;;;3.79;68.33;98830.00;5022590;28;19913;-86
2021/01/24 05:23:27;;;;;;;;;;;;;;;3.53;69.89;98823.81;5034787;28;19913;-86
2021/01/24 05:26:12;;;;;;;;;;;;;;;3.43;70.95;98842.94;5013881;28;19913;-85
2021/01/24 05:29:38;;;;;;;;;;;;;;;3.40;70.81;98838.97;5009174;28;20391;-87
2021/01/24 05:32:22;;;;;;;;;;;;;;;3.56;71.55;98830.44;5001937;28;19921;-86
2021/01/24 05:35:09;;;;;;;;;;;;;;;3.81;71.15;98835.03;5012838;28;19913;-86
2021/01/24 05:37:53;;;;;;;;;;;;;;;4.01;71.12;98820.97;5019397;28;20072;-85
2021/01/24 05:40:38;;;;;;;;;;;;;;;3.85;70.79;98827.94;5024568;28;20369;-85
2021/01/24 05:43:26;;;;;;;;;;;;;;;3.69;71.54;98830.31;5026454;28;19917;-85
2021/01/24 05:46:12;;;;;;;;;;;;;;;3.72;71.51;98826.97;5026005;28;20479;-86
2021/01/24 05:48:56;;;;;;;;;;;;;;;3.74;71.33;98832.84;5013002;28;19913;-85
2021/01/24 05:51:41;;;;;;;;;;;;;;;3.48;70.30;98823.19;5020068;28;19913;-85
2021/01/24 05:54:44;;;;;;;;;;;;;;;3.27;70.66;98823.00;5025608;28;19917;-85
2021/01/24 05:57:32;;;;;;;;;;;;;;;2.95;72.18;98816.13;5012902;28;19920;-85
2021/01/24 06:00:17;;;;;;;;;;;;;;;3.23;72.81;98819.34;5024901;28;19912;-84
2021/01/24 06:03:02;;;;;;;;;;;;;;;3.13;73.21;98825.03;5018995;28;19913;-84
2021/01/24 06:05:46;;;;;;;;;;;;;;;3.24;71.30;98823.63;5012643;28;19917;-85
2021/01/24 06:08:31;;;;;;;;;;;;;;;3.15;71.79;98826.28;5014190;28;19921;-86
2021/01/24 06:11:16;;;;;;;;;;;;;;;3.32;70.44;98834.38;5008926;28;19912;-84
2021/01/24 06:14:01;;;;;;;;;;;;;;;3.15;71.04;98838.94;5023053;28;19917;-85
2021/01/24 06:16:46;;;;;;;;;;;;;;;3.29;70.59;98832.34;5026761;28;19913;-85
2021/01/24 06:19:38;;;;;;;;;;;;;;;2.87;71.45;98819.56;5033418;28;19913;-85
2021/01/24 06:22:58;;;;;;;;;;;;;;;3.22;71.83;98820.44;5033852;28;20383;-85
2021/01/24 06:25:47;;;;;;;;;;;;;;;3.14;71.29;98824.72;5023125;28;19914;-84
2021/01/24 06:28:34;;;;;;;;;;;;;;;3.27;70.79;98818.41;5013621;28;20399;-83
2021/01/24 06:31:18;;;;;;;;;;;;;;;2.52;73.34;98819.44;5034274;28;19913;-84
2021/01/24 06:34:06;;;;;;;;;;;;;;;1.86;76.65;98808.78;5025667;28;19917;-84
2021/01/24 06:37:07;;;;;;;;;;;;;;;2.03;75.77;98811.59;5026040;28;19913;-79
2021/01/24 06:39:52;;;;;;;;;;;;;;;2.20;75.37;98800.97;5024076;28;19913;-83
2021/01/24 06:42:47;;;;;;;;;;;;;;;2.10;75.66;98795.84;5010018;28;19913;-83
2021/01/24 06:45:32;;;;;;;;;;;;;;;2.64;75.23;98807.34;5018941;28;20406;-81
2021/01/24 06:48:17;;;;;;;;;;;;;;;3.08;74.08;98809.84;5022238;28;19913;-83
2021/01/24 06:51:01;;;;;;;;;;;;;;;3.30;72.87;98817.00;4998978;28;19912;-82
2021/01/24 06:53:48;;;;;;;;;;;;;;;2.66;73.10;98816.66;5025204;28;19917;-82
2021/01/24 06:56:40;;;;;;;;;;;;;;;2.82;73.44;98823.19;5019326;28;19921;-82
2021/01/24 06:59:28;;;;;;;;;;;;;;;2.90;73.39;98818.94;5024254;28;20303;-82
2021/01/24 07:02:24;;;;;;;;;;;;;;;2.94;71.98;98825.28;5015310;28;20275;-83
2021/01/24 07:05:13;;;;;;;;;;;;;;;2.66;73.19;98834.63;5009739;28;19921;-87
2021/01/24 07:07:57;;;;;;;;;;;;;;;2.89;73.30;98841.53;5039494;28;19917;-86
2021/01/24 07:10:42;;;;;;;;;;;;;;;2.64;73.69;98844.91;5017228;28;19913;-87
2021/01/24 07:13:30;;;;;;;;;;;;;;;3.02;72.96;98840.63;5019937;28;20294;-84
2021/01/24 07:16:14;;;;;;;;;;;;;;;3.00;73.88;98845.50;5027320;28;19913;-84
2021/01/24 07:18:59;;;;;;;;;;;;;;;3.00;73.13;98848.19;5013685;28;19913;-86
2021/01/24 07:21:44;;;;;;;;;;;;;;;3.21;71.74;98848.41;5018132;28;19917;-84
2021/01/24 07:24:28;;;;;;;;;;;;;;;3.36;71.68;98848.75;5019288;28;19913;-84
2021/01/24 07:27:23;;;;;;;;;;;;;;;3.78;71.29;98854.50;5025440;28;19912;-83
2021/01/24 07:30:07;;;;;;;;;;;;;;;3.69;71.01;98861.78;5024949;28;19913;-84
2021/01/24 07:32:52;;;;;;;;;;;;;;;3.88;69.58;98864.94;5011506;28;19917;-82
2021/01/24 07:35:37;;;;;;;;;;;;;;;3.97;69.33;98873.78;5025582;28;19913;-82
2021/01/24 07:38:22;;;;;;;;;;;;;;;3.15;70.44;98881.91;5024769;28;20291;-83
2021/01/24 07:41:06;;;;;;;;;;;;;;;3.19;71.30;98883.66;5021998;28;19917;-82
2021/01/24 07:43:52;;;;;;;;;;;;;;;3.77;69.37;98891.34;5005222;28;20371;-82
2021/01/24 07:46:39;;;;;;;;;;;;;;;3.75;69.10;98895.47;5000355;28;19913;-83
2021/01/24 07:52:37;;;;;;;;;;;;;;;3.82;69.89;98917.28;5018289;28;19917;-81
2021/01/24 07:55:22;;;;;;;;;;;;;;;3.61;71.29;98918.97;5011330;28;19917;-80
2021/01/24 07:58:08;;;;;;;;;;;;;;;3.75;71.24;98925.81;5019676;28;19913;-83
2021/01/24 08:00:55;;;;;;;;;;;;;;;4.00;70.40;98934.22;5028104;28;19913;-82
2021/01/24 08:03:43;;;;;;;;;;;;;;;3.55;70.69;98944.44;5020100;28;19913;-82
2021/01/24 08:06:28;;;;;;;;;;;;;;;3.07;73.01;98941.72;5019953;28;19913;-81
2021/01/24 08:09:12;;;;;;;;;;;;;;;2.33;75.10;98950.28;4990869;28;19913;-79
2021/01/24 08:11:56;;;;;;;;;;;;;;;3.31;72.92;98964.41;5013487;28;20390;-78
2021/01/24 08:14:41;;;;;;;;;;;;;;;4.05;70.20;98969.03;5004591;28;19917;-80
2021/01/24 08:17:27;;;;;;;;;;;;;;;4.37;68.95;98970.47;5012504;28;19913;-80
2021/01/24 08:20:12;;;;;;;;;;;;;;;4.54;69.55;98973.94;5008617;28;19917;-78
2021/01/24 08:22:57;;;;;;;;;;;;;;;4.55;68.28;98974.75;5028948;28;19914;-78
2021/01/24 08:25:42;;;;;;;;;;;;;;;4.12;69.85;98972.03;5016596;28;20386;-79
2021/01/24 08:28:27;;;;;;;;;;;;;;;4.26;69.61;98980.75;5016944;28;19913;-79
2021/01/24 08:31:16;;;;;;;;;;;;;;;4.31;68.93;98986.00;5001267;28;20417;-79
2021/01/24 08:34:01;;;;;;;;;;;;;;;4.02;70.98;98991.16;5003445;28;19917;-78
2021/01/24 08:36:47;;;;;;;;;;;;;;;4.16;70.92;98991.84;4993295;28;19914;-78
2021/01/24 08:39:32;;;;;;;;;;;;;;;4.35;70.08;98989.63;5021808;28;19916;-80
2021/01/24 08:42:16;;;;;;;;;;;;;;;4.43;69.27;98993.41;5002070;28;19913;-79
2021/01/24 08:45:05;;;;;;;;;;;;;;;4.58;69.41;99001.00;5007363;28;19913;-79
2021/01/24 08:47:53;;;;;;;;;;;;;;;4.54;69.69;98997.38;5006426;28;19921;-79
2021/01/24 08:50:39;;;;;;;;;;;;;;;4.19;70.91;98999.25;5014529;28;19913;-79
2021/01/24 09:02:11;;;;;;;;;;;;;;;4.32;72.48;98989.47;5947421;22;19921;-79
2021/01/24 09:04:56;;;;;;;;;;;;;;;4.27;72.14;98993.88;5000093;28;19926;-80
2021/01/24 09:07:41;;;;;;;;;;;;;;;4.60;71.60;98988.81;4968817;28;19917;-80
2021/01/24 09:10:31;;;;;;;;;;;;;;;4.18;73.82;98987.72;4965882;28;19922;-79
2021/01/24 09:13:16;;;;;;;;;;;;;;;4.51;73.05;98971.91;4996782;28;19914;-78
2021/01/24 09:16:00;;;;;;;;;;;;;;;5.01;72.64;98977.53;5029633;22;19921;-77
2021/01/24 09:18:44;;;;;;;;;;;;;;;5.01;71.30;98968.66;4995840;28;19918;-77
2021/01/24 09:21:29;;;;;;;;;;;;;;;5.68;71.69;98970.59;4995363;28;20379;-78
2021/01/24 09:24:13;;;;;;;;;;;;;;;5.46;70.37;98963.56;4999290;28;20299;-78
2021/01/24 09:26:58;;;;;;;;;;;;;;;5.30;69.92;98963.31;4995439;28;19914;-79
2021/01/24 09:29:42;;;;;;;;;;;;;;;5.09;70.41;98968.63;4995081;28;19914;-81
2021/01/24 09:32:26;;;;;;;;;;;;;;;4.94;71.18;98957.56;5007033;28;19913;-79
2021/01/24 09:35:11;;;;;;;;;;;;;;;5.08;71.12;98953.56;5002779;28;19913;-78
2021/01/24 09:37:56;;;;;;;;;;;;;;;5.19;70.81;98956.69;4988073;28;19913;-79
2021/01/24 09:40:41;;;;;;;;;;;;;;;5.03;71.78;98958.31;5005175;28;19913;-79
2021/01/24 09:43:25;;;;;;;;;;;;;;;5.15;71.75;98961.16;5018072;28;19913;-78
2021/01/24 09:46:09;;;;;;;;;;;;;;;5.32;72.23;98955.72;5014451;28;19921;-78
2021/01/24 09:48:54;;;;;;;;;;;;;;;5.60;71.46;98950.66;4998737;28;19913;-79
2021/01/24 09:51:39;;;;;;;;;;;;;;;5.71;71.55;98967.25;4989465;28;19917;-79
2021/01/24 09:54:23;;;;;;;;;;;;;;;6.08;71.69;98957.53;4988681;28;19913;-79
2021/01/24 09:57:07;;;;;;;;;;;;;;;6.04;71.15;98956.63;4999675;28;19917;-79
2021/01/24 09:59:52;;;;;;;;;;;;;;;6.07;70.49;98961.34;4989841;28;19913;-79
2021/01/24 10:02:36;;;;;;;;;;;;;;;6.03;70.56;98963.13;4987552;28;19917;-79
2021/01/24 10:05:20;;;;;;;;;;;;;;;6.08;70.99;98958.34;5013867;28;20287;-79
2021/01/24 10:08:05;;;;;;;;;;;;;;;6.34;71.08;98969.72;5014221;28;19913;-79
2021/01/24 10:10:49;;;;;;;;;;;;;;;6.50;71.45;98967.22;5014269;28;19917;-79
2021/01/24 10:13:34;;;;;;;;;;;;;;;6.92;69.62;98975.22;4998892;28;19913;-79
2021/01/24 10:16:18;;;;;;;;;;;;;;;6.94;68.82;98975.69;5013686;28;19914;-79
2021/01/24 10:19:03;;;;;;;;;;;;;;;7.00;68.50;98983.25;5014029;28;19913;-79
2021/01/24 10:21:47;;;;;;;;;;;;;;;6.77;69.20;98982.03;4986064;28;20298;-78
2021/01/24 10:24:32;;;;;;;;;;;;;;;6.98;68.31;98987.41;4984278;28;19913;-79
2021/01/24 10:27:16;;;;;;;;;;;;;;;6.76;69.33;98981.25;5012480;28;19917;-79
2021/01/24 10:30:02;;;;;;;;;;;;;;;7.13;70.15;98979.47;4994354;28;20379;-79
2021/01/24 10:32:47;;;;;;;;;;;;;;;7.52;68.46;98972.63;5013126;28;20283;-79
2021/01/24 10:35:31;;;;;;;;;;;;;;;7.99;70.55;98977.56;5013687;28;19913;-79
2021/01/24 10:38:17;;;;;;;;;;;;;;;7.90;68.02;98974.22;5013581;28;20379;-80
2021/01/24 10:41:01;;;;;;;;;;;;;;;8.59;69.93;98974.75;5013190;28;19913;-80
2021/01/24 10:43:46;;;;;;;;;;;;;;;9.05;69.72;98966.28;4988356;28;19917;-79
2021/01/24 10:46:31;;;;;;;;;;;;;;;9.82;69.72;98965.50;4986155;28;19914;-79
2021/01/24 10:49:16;;;;;;;;;;;;;;;9.83;64.91;98977.16;4990086;28;19913;-79
2021/01/24 10:52:00;;;;;;;;;;;;;;;9.99;63.37;98977.13;5001750;28;19917;-79
2021/01/24 10:54:44;;;;;;;;;;;;;;;10.31;63.94;98972.44;5013593;28;20370;-80
2021/01/24 10:57:29;;;;;;;;;;;;;;;10.43;62.99;98983.97;5012872;28;19913;-79
2021/01/24 11:00:14;;;;;;;;;;;;;;;10.38;63.49;98981.53;4999193;28;19914;-78
2021/01/24 11:02:59;;;;;;;;;;;;;;;10.16;62.58;98982.97;4983255;28;20378;-80
2021/01/24 11:05:44;;;;;;;;;;;;;;;10.28;62.29;98982.09;5012907;28;20310;-79
2021/01/24 11:08:28;;;;;;;;;;;;;;;10.55;63.66;98988.47;5002679;28;19914;-77
2021/01/24 11:11:13;;;;;;;;;;;;;;;10.77;62.94;98987.75;4986871;28;19918;-79
2021/01/24 11:13:58;;;;;;;;;;;;;;;10.94;61.71;98983.81;4998848;28;20322;-81
2021/01/24 11:16:42;;;;;;;;;;;;;;;11.15;59.87;98976.84;4986299;28;19914;-78
2021/01/24 11:19:27;;;;;;;;;;;;;;;11.18;60.20;98983.47;5000744;28;19913;-79
2021/01/24 11:22:11;;;;;;;;;;;;;;;10.96;59.54;98985.03;4978436;28;19914;-79
2021/01/24 11:24:56;;;;;;;;;;;;;;;9.82;60.59;98975.59;4993409;28;20303;-79
2021/01/24 11:27:41;;;;;;;;;;;;;;;10.26;62.34;98982.44;4992120;28;19914;-79
2021/01/24 11:30:25;;;;;;;;;;;;;;;10.42;61.73;98984.31;4992033;28;19918;-78
2021/01/24 11:33:09;;;;;;;;;;;;;;;10.79;60.61;98985.47;4978347;28;20387;-79
2021/01/24 11:35:54;;;;;;;;;;;;;;;10.74;60.69;98983.03;4992233;28;20383;-79
2021/01/24 11:38:38;;;;;;;;;;;;;;;10.85;59.04;98988.69;5002116;28;19913;-79
2021/01/24 11:41:23;;;;;;;;;;;;;;;10.89;59.99;98982.16;4996049;28;19913;-79
2021/01/24 11:44:07;;;;;;;;;;;;;;;10.49;59.89;98989.91;4999892;28;20371;-79
2021/01/24 11:46:52;;;;;;;;;;;;;;;11.07;61.68;98988.72;4999216;28;19913;-79
2021/01/24 11:49:37;;;;;;;;;;;;;;;10.80;59.54;98992.47;4997457;28;19917;-79
2021/01/24 11:52:21;;;;;;;;;;;;;;;10.21;57.65;98984.63;5001074;28;19917;-78
2021/01/24 11:55:06;;;;;;;;;;;;;;;9.96;58.05;98978.63;5012250;28;19914;-78
2021/01/24 11:57:51;;;;;;;;;;;;;;;9.96;58.21;98972.41;4997935;28;19914;-79
2021/01/24 12:00:35;;;;;;;;;;;;;;;9.95;56.64;98968.91;4997571;28;19914;-78
2021/01/24 12:03:19;;;;;;;;;;;;;;;9.92;57.11;98964.19;4998671;28;20294;-79
2021/01/24 12:06:04;;;;;;;;;;;;;;;9.95;57.97;98966.22;4992897;28;19913;-79
2021/01/24 12:08:49;;;;;;;;;;;;;;;10.17;58.75;98960.13;5001870;28;19913;-79
2021/01/24 12:11:35;;;;;;;;;;;;;;;10.68;59.20;98963.50;4986432;28;20363;-79
2021/01/24 12:14:19;;;;;;;;;;;;;;;11.12;58.06;98952.31;4964737;28;20167;-80
2021/01/24 12:17:03;;;;;;;;;;;;;;;11.44;58.28;98950.09;4987767;28;20379;-79
2021/01/24 12:19:48;;;;;;;;;;;;;;;11.64;56.62;98945.38;4998060;28;19913;-79
2021/01/24 12:22:32;;;;;;;;;;;;;;;11.90;54.11;98939.97;4983670;28;20376;-79
2021/01/24 12:25:17;;;;;;;;;;;;;;;12.03;54.32;98944.06;4996452;28;19917;-79
2021/01/24 12:28:01;;;;;;;;;;;;;;;12.18;52.57;98947.75;4997882;28;19913;-80
2021/01/24 12:30:46;;;;;;;;;;;;;;;12.56;51.87;98947.47;4982743;28;19925;-80
2021/01/24 12:33:30;;;;;;;;;;;;;;;12.56;51.76;98950.19;5004620;28;19939;-80
2021/01/24 12:36:15;;;;;;;;;;;;;;;12.76;51.75;98954.31;4989034;28;19922;-77
2021/01/24 12:39:00;;;;;;;;;;;;;;;12.60;51.23;98948.28;4991754;28;19913;-79
2021/01/24 12:41:44;;;;;;;;;;;;;;;12.76;51.96;98939.91;4988279;28;19932;-79
2021/01/24 12:44:28;;;;;;;;;;;;;;;12.89;51.42;98943.97;5002655;28;19913;-79
2021/01/24 12:47:13;;;;;;;;;;;;;;;13.04;49.44;98947.63;4999600;28;20379;-79
2021/01/24 12:49:57;;;;;;;;;;;;;;;13.10;50.44;98941.44;4986331;28;19917;-80
2021/01/24 12:52:43;;;;;;;;;;;;;;;13.29;49.88;98932.28;4999196;28;19918;-79
2021/01/24 12:55:28;;;;;;;;;;;;;;;13.25;49.29;98936.94;5000821;28;19913;-80
2021/01/24 12:58:12;;;;;;;;;;;;;;;13.20;49.38;98931.81;4986426;28;19913;-80
2021/01/24 13:00:58;;;;;;;;;;;;;;;13.31;48.44;98929.94;5005098;28;19917;-80
2021/01/24 13:03:43;;;;;;;;;;;;;;;13.46;49.13;98933.59;4986732;28;19913;-78
2021/01/24 13:06:27;;;;;;;;;;;;;;;13.52;49.54;98934.81;4998231;28;20314;-79
2021/01/24 13:09:11;;;;;;;;;;;;;;;11.59;48.28;98930.13;4989310;28;19913;-79
2021/01/24 13:11:56;;;;;;;;;;;;;;;11.37;49.72;98922.78;4987846;28;19925;-78
2021/01/24 13:14:40;;;;;;;;;;;;;;;10.90;50.72;98926.66;4987403;28;19913;-79
2021/01/24 13:17:24;;;;;;;;;;;;;;;10.98;50.07;98922.91;4999721;28;20379;-79
2021/01/24 13:20:09;;;;;;;;;;;;;;;11.02;49.23;98918.28;5013456;28;19913;-78
2021/01/24 13:22:54;;;;;;;;;;;;;;;11.24;48.93;98919.47;5013722;28;19913;-78
2021/01/24 13:25:38;;;;;;;;;;;;;;;11.52;49.27;98927.31;5005006;28;19976;-78
2021/01/24 13:28:24;;;;;;;;;;;;;;;11.67;49.23;98920.94;5003243;28;19913;-78
2021/01/24 13:31:08;;;;;;;;;;;;;;;11.66;48.52;98927.53;4999875;28;20314;-78
2021/01/24 13:33:53;;;;;;;;;;;;;;;11.68;48.36;98927.97;4990051;28;19928;-78
2021/01/24 13:36:38;;;;;;;;;;;;;;;13.07;52.91;98949.59;5013873;28;19922;-78
2021/01/24 13:39:23;;;;;;;;;;;;;;;13.24;53.06;98943.56;5016061;28;20363;-78
2021/01/24 13:42:07;;;;;;;;;;;;;;;13.35;52.70;98949.91;5011819;28;20294;-78
2021/01/24 13:44:52;;;;;;;;;;;;;;;13.52;52.44;98951.19;5011994;28;19914;-78
2021/01/24 13:47:36;;;;;;;;;;;;;;;13.67;51.92;98958.34;5013366;28;19913;-79
2021/01/24 13:50:21;;;;;;;;;;;;;;;13.87;52.24;98951.47;4983237;28;20367;-78
2021/01/24 13:53:05;;;;;;;;;;;;;;;13.97;51.71;98948.00;5000881;28;20279;-78
2021/01/24 13:55:50;;;;;;;;;;;;;;;13.99;51.75;98948.44;5001785;28;20291;-78
2021/01/24 13:58:35;;;;;;;;;;;;;;;14.14;51.59;98932.88;4984948;28;20379;-78
2021/01/24 14:01:19;;;;;;;;;;;;;;;14.28;51.30;98949.38;5003500;28;19921;-78
2021/01/24 14:04:04;;;;;;;;;;;;;;;14.18;50.89;98963.75;5013642;28;19914;-78
2021/01/24 14:06:49;;;;;;;;;;;;;;;14.30;51.41;98966.19;5011505;28;19913;-77
2021/01/24 14:09:33;;;;;;;;;;;;;;;14.35;51.05;98976.75;4997906;28;19914;-78
2021/01/24 14:12:18;;;;;;;;;;;;;;;14.54;50.95;98971.00;4986477;28;19918;-78
2021/01/24 14:15:03;;;;;;;;;;;;;;;14.38;50.35;98964.28;4985719;28;19913;-78
2021/01/24 14:17:48;;;;;;;;;;;;;;;14.55;51.03;98964.38;4996648;28;19922;-77
2021/01/24 14:20:34;;;;;;;;;;;;;;;14.61;50.79;98962.06;4997132;28;20318;-78
2021/01/24 14:23:19;;;;;;;;;;;;;;;14.58;50.20;98962.06;5012581;28;19913;-78
2021/01/24 14:26:04;;;;;;;;;;;;;;;14.35;49.57;98960.34;4988375;28;19913;-78
2021/01/24 14:28:48;;;;;;;;;;;;;;;14.37;50.84;98968.22;4999755;28;20286;-78
2021/01/24 14:31:34;;;;;;;;;;;;;;;14.52;50.81;98978.84;4996720;28;19917;-77
2021/01/24 14:34:18;;;;;;;;;;;;;;;14.45;50.66;98967.84;4995194;28;19914;-78
2021/01/24 14:37:02;;;;;;;;;;;;;;;14.52;50.67;98965.16;5020585;28;19921;-78
2021/01/24 14:39:47;;;;;;;;;;;;;;;14.34;50.51;98980.66;5013254;28;19917;-76
2021/01/24 14:42:31;;;;;;;;;;;;;;;14.45;51.11;98973.31;4996082;28;19913;-78
2021/01/24 14:45:15;;;;;;;;;;;;;;;13.67;49.54;98980.97;4996540;28;19977;-78
2021/01/24 14:48:00;;;;;;;;;;;;;;;13.88;51.00;98990.50;4997440;28;19913;-78